Terminal Aerodrome Forecast
Issued by NWS

Home | Current Version | Previous Version | Graphics & Text | Print | Product List | Glossary On
Versions: 1 2 3 4 5 6 7 8 9 10 11 12 13 14 15
944
FTUS43 KMPX 110520
TAFRWF
TAF
KRWF 110520Z 1106/1206 VRB03KT P6SM SCT060 OVC090
     FM111200 20006KT P6SM BKN050 OVC100
     FM112100 18007KT P6SM OVC025
     FM120000 23005KT 5SM -SN BR OVC015=

USA.gov is the U.S. government's official web portal to all federal, state and local government web resources and services.